Time;durP1;ratioP1;P1;durP2;ratioP2;P2;SDS_P1;SDS_P2;PMS_P1;PMS_P2;Temp;Humidity;BMP_temperature;BMP_pressure;BME280_temperature;BME280_humidity;BME280_pressure;Samples;Min_cycle;Max_cycle;Signal;HPM_P1;HPM_P2
2020/12/11 00:00:14;;;;;;;13.88;9.73;;;;;;;;;;5074218;28;20216;-76
2020/12/11 00:02:40;;;;;;;13.88;9.15;;;;;;;;;;5074246;28;20228;-75
2020/12/11 00:05:08;;;;;;;11.68;8.98;;;;;;;;;;5076575;28;20240;-76
2020/12/11 00:07:35;;;;;;;13.88;9.45;;;;;;;;;;5080877;28;20211;-76
2020/12/11 00:10:03;;;;;;;15.32;11.07;;;;;;;;;;5092223;28;20632;-75
2020/12/11 00:12:29;;;;;;;14.02;10.50;;;;;;;;;;5092102;28;20200;-76
2020/12/11 00:14:56;;;;;;;13.88;9.63;;;;;;;;;;5092136;28;20228;-76
2020/12/11 00:17:23;;;;;;;13.60;9.68;;;;;;;;;;5078488;28;20296;-76
2020/12/11 00:19:50;;;;;;;12.73;9.07;;;;;;;;;;5074145;28;20198;-76
2020/12/11 00:22:18;;;;;;;13.52;10.00;;;;;;;;;;5073643;28;20312;-76
2020/12/11 00:24:45;;;;;;;16.05;10.50;;;;;;;;;;5073899;28;20642;-76
2020/12/11 00:27:12;;;;;;;15.00;9.95;;;;;;;;;;5076583;28;20198;-76
2020/12/11 00:29:38;;;;;;;14.40;9.80;;;;;;;;;;5075671;28;20250;-75
2020/12/11 00:32:05;;;;;;;12.60;9.82;;;;;;;;;;5071292;28;20198;-76
2020/12/11 00:34:33;;;;;;;13.25;9.77;;;;;;;;;;5071415;28;20638;-75
2020/12/11 00:37:00;;;;;;;13.23;10.82;;;;;;;;;;5071741;28;20201;-76
2020/12/11 00:39:27;;;;;;;14.48;10.98;;;;;;;;;;5072592;28;20236;-75
2020/12/11 00:41:54;;;;;;;15.93;11.20;;;;;;;;;;5073736;28;20205;-76
2020/12/11 00:44:21;;;;;;;13.90;10.07;;;;;;;;;;5073421;28;20214;-76
2020/12/11 00:46:48;;;;;;;12.27;9.95;;;;;;;;;;5073671;28;20201;-76
2020/12/11 00:49:15;;;;;;;14.45;11.02;;;;;;;;;;5076278;28;20247;-76
2020/12/11 00:51:42;;;;;;;14.27;9.65;;;;;;;;;;5075728;28;20592;-76
2020/12/11 00:54:09;;;;;;;13.75;10.77;;;;;;;;;;5071264;28;20187;-75
2020/12/11 00:56:36;;;;;;;18.35;10.88;;;;;;;;;;5071031;28;20204;-76
2020/12/11 00:59:03;;;;;;;16.50;11.40;;;;;;;;;;5071815;28;20210;-76
2020/12/11 01:01:30;;;;;;;14.25;10.40;;;;;;;;;;5072397;28;20202;-76
2020/12/11 01:03:56;;;;;;;14.43;9.80;;;;;;;;;;5073568;28;20217;-76
2020/12/11 01:06:23;;;;;;;17.25;11.15;;;;;;;;;;5073370;28;20226;-76
2020/12/11 01:08:50;;;;;;;14.55;10.95;;;;;;;;;;5073556;28;20292;-76
2020/12/11 01:11:17;;;;;;;14.48;11.00;;;;;;;;;;5076075;28;20194;-76
2020/12/11 01:13:44;;;;;;;14.73;10.60;;;;;;;;;;5074966;28;20738;-76
2020/12/11 01:16:11;;;;;;;15.43;11.30;;;;;;;;;;5071233;28;20305;-76
2020/12/11 01:18:38;;;;;;;15.30;11.05;;;;;;;;;;5072789;28;20201;-77
2020/12/11 01:21:05;;;;;;;14.77;10.88;;;;;;;;;;5075483;28;20234;-76
2020/12/11 01:23:32;;;;;;;16.15;11.88;;;;;;;;;;5076131;28;20229;-76
2020/12/11 01:25:59;;;;;;;18.20;11.95;;;;;;;;;;5077293;28;20224;-76
2020/12/11 01:28:25;;;;;;;14.07;10.52;;;;;;;;;;5077090;28;20197;-76
2020/12/11 01:30:53;;;;;;;14.95;11.13;;;;;;;;;;5077390;28;20203;-76
2020/12/11 01:33:20;;;;;;;14.55;10.38;;;;;;;;;;5079903;28;20196;-77
2020/12/11 01:35:47;;;;;;;15.32;10.27;;;;;;;;;;5078891;28;20209;-76
2020/12/11 01:38:13;;;;;;;14.63;10.40;;;;;;;;;;5074745;28;20225;-76
2020/12/11 01:40:40;;;;;;;15.63;10.85;;;;;;;;;;5074591;28;20281;-76
2020/12/11 01:43:07;;;;;;;15.10;10.73;;;;;;;;;;5074691;28;20206;-76
2020/12/11 01:45:34;;;;;;;15.05;10.88;;;;;;;;;;5075564;28;20234;-75
2020/12/11 01:48:01;;;;;;;15.02;9.93;;;;;;;;;;5076909;28;20666;-76
2020/12/11 01:50:28;;;;;;;12.63;10.45;;;;;;;;;;5076748;28;20200;-76
2020/12/11 01:52:55;;;;;;;14.73;10.23;;;;;;;;;;5076696;28;20205;-77
2020/12/11 01:55:22;;;;;;;13.90;10.52;;;;;;;;;;5079245;28;20592;-76
2020/12/11 01:57:54;;;;;;;13.85;9.73;;;;;;;;;;5083569;28;20665;-76
2020/12/11 02:00:21;;;;;;;14.50;9.82;;;;;;;;;;5094731;28;20200;-75
2020/12/11 02:02:51;;;;;;;12.80;9.85;;;;;;;;;;5094508;28;20193;-76
2020/12/11 02:05:19;;;;;;;13.38;9.38;;;;;;;;;;5094497;28;20222;-76
2020/12/11 02:07:47;;;;;;;17.13;10.70;;;;;;;;;;5079937;28;20682;-76
2020/12/11 02:10:14;;;;;;;12.65;10.63;;;;;;;;;;5077010;28;20273;-76
2020/12/11 02:12:42;;;;;;;13.93;9.68;;;;;;;;;;5076561;28;20702;-75
2020/12/11 02:15:08;;;;;;;14.68;10.05;;;;;;;;;;5076532;28;20246;-76
2020/12/11 02:17:37;;;;;;;14.95;9.82;;;;;;;;;;5079734;28;20237;-76
2020/12/11 02:20:04;;;;;;;13.88;10.20;;;;;;;;;;5084024;28;20204;-75
2020/12/11 02:22:32;;;;;;;14.20;9.82;;;;;;;;;;5093660;28;20217;-76
2020/12/11 02:24:59;;;;;;;13.25;10.77;;;;;;;;;;5092629;28;20260;-75
2020/12/11 02:27:26;;;;;;;12.70;9.80;;;;;;;;;;5093022;28;20255;-75
2020/12/11 02:29:53;;;;;;;13.20;9.95;;;;;;;;;;5077918;28;20205;-76
2020/12/11 02:32:20;;;;;;;12.55;9.70;;;;;;;;;;5074971;28;20715;-76
2020/12/11 02:34:48;;;;;;;13.95;9.02;;;;;;;;;;5074841;28;20258;-76
2020/12/11 02:37:14;;;;;;;13.35;9.73;;;;;;;;;;5074840;28;20205;-76
2020/12/11 02:39:43;;;;;;;14.43;10.70;;;;;;;;;;5077923;28;20235;-75
2020/12/11 02:42:10;;;;;;;12.85;9.82;;;;;;;;;;5082947;28;20197;-75
2020/12/11 02:44:37;;;;;;;15.60;10.52;;;;;;;;;;5092608;28;20275;-75
2020/12/11 02:47:03;;;;;;;12.63;9.95;;;;;;;;;;5092996;28;20236;-75
2020/12/11 02:49:30;;;;;;;13.93;10.25;;;;;;;;;;5092645;28;20672;-75
2020/12/11 02:51:57;;;;;;;14.43;9.90;;;;;;;;;;5077648;28;20209;-75
2020/12/11 02:54:24;;;;;;;13.13;9.98;;;;;;;;;;5074569;28;20205;-75
2020/12/11 02:56:52;;;;;;;12.82;10.23;;;;;;;;;;5074797;28;20288;-76
2020/12/11 02:59:31;;;;;;;15.27;9.43;;;;;;;;;;5074656;28;20209;-76
2020/12/11 03:01:58;;;;;;;13.52;10.57;;;;;;;;;;5077715;28;20198;-76
2020/12/11 03:04:25;;;;;;;15.52;10.07;;;;;;;;;;5075207;28;20281;-77
2020/12/11 03:06:52;;;;;;;13.98;10.18;;;;;;;;;;5072373;28;20205;-75
2020/12/11 03:09:27;;;;;;;15.07;10.02;;;;;;;;;;5072033;28;20194;-75
2020/12/11 03:11:54;;;;;;;17.42;11.38;;;;;;;;;;5072280;28;20196;-75
2020/12/11 03:14:21;;;;;;;15.77;9.63;;;;;;;;;;5073579;28;20508;-75
2020/12/11 03:16:48;;;;;;;13.15;10.30;;;;;;;;;;5074281;28;20197;-75
2020/12/11 03:19:15;;;;;;;13.93;10.48;;;;;;;;;;5074279;28;20555;-76
2020/12/11 03:24:24;;;;;;;14.05;10.02;;;;;;;;;;5156033;27;20545;-75
2020/12/11 03:26:54;;;;;;;16.73;10.20;;;;;;;;;;5131264;27;20665;-75
2020/12/11 03:29:21;;;;;;;11.57;8.63;;;;;;;;;;5129371;27;20202;-76
2020/12/11 03:31:49;;;;;;;14.95;9.57;;;;;;;;;;5129334;27;20744;-76
2020/12/11 03:34:16;;;;;;;12.90;10.27;;;;;;;;;;5128346;27;20250;-75
2020/12/11 03:36:42;;;;;;;13.45;10.30;;;;;;;;;;5131779;27;20612;-76
2020/12/11 03:39:09;;;;;;;14.55;10.43;;;;;;;;;;5135500;27;20607;-76
2020/12/11 03:41:37;;;;;;;13.45;9.40;;;;;;;;;;5145475;27;20283;-76
2020/12/11 03:44:04;;;;;;;13.25;9.57;;;;;;;;;;5149905;27;20225;-76
2020/12/11 03:46:31;;;;;;;12.90;9.85;;;;;;;;;;5149919;27;20218;-76
2020/12/11 03:48:59;;;;;;;15.60;10.00;;;;;;;;;;5146610;27;20287;-76
2020/12/11 03:51:27;;;;;;;12.55;9.20;;;;;;;;;;5131516;27;20238;-75
2020/12/11 03:53:54;;;;;;;13.75;9.50;;;;;;;;;;5132077;28;20250;-75
2020/12/11 03:56:21;;;;;;;15.90;9.45;;;;;;;;;;5131090;27;20332;-75
2020/12/11 03:58:48;;;;;;;13.02;9.55;;;;;;;;;;5132041;27;20207;-76
2020/12/11 04:01:15;;;;;;;14.38;9.75;;;;;;;;;;5135337;27;20194;-76
2020/12/11 04:03:42;;;;;;;14.75;10.00;;;;;;;;;;5128998;27;20307;-76
2020/12/11 04:06:10;;;;;;;12.27;9.73;;;;;;;;;;5128687;27;20223;-76
2020/12/11 04:08:37;;;;;;;12.57;9.63;;;;;;;;;;5128765;27;20283;-75
2020/12/11 04:11:05;;;;;;;11.68;9.45;;;;;;;;;;5128547;27;20189;-75
2020/12/11 04:13:32;;;;;;;11.88;9.23;;;;;;;;;;5129958;28;20279;-76
2020/12/11 04:16:00;;;;;;;12.10;9.57;;;;;;;;;;5130998;27;20693;-75
2020/12/11 04:18:26;;;;;;;14.70;9.48;;;;;;;;;;5130782;28;20554;-75
2020/12/11 04:20:53;;;;;;;15.57;10.60;;;;;;;;;;5131640;27;20184;-75
2020/12/11 04:23:20;;;;;;;14.13;9.55;;;;;;;;;;5134398;27;20219;-75
2020/12/11 04:25:47;;;;;;;10.15;9.00;;;;;;;;;;5143826;27;20208;-75
2020/12/11 04:28:13;;;;;;;15.45;10.05;;;;;;;;;;5149110;27;20560;-76
2020/12/11 04:30:40;;;;;;;12.52;9.93;;;;;;;;;;5149308;27;20291;-75
2020/12/11 04:33:08;;;;;;;13.02;9.98;;;;;;;;;;5145341;27;20192;-75
2020/12/11 04:35:35;;;;;;;14.43;9.35;;;;;;;;;;5117983;28;20221;-75
2020/12/11 04:38:02;;;;;;;13.82;9.15;;;;;;;;;;5116830;28;20261;-77
2020/12/11 04:40:29;;;;;;;13.98;9.63;;;;;;;;;;5117047;28;20287;-75
2020/12/11 04:42:56;;;;;;;16.23;10.40;;;;;;;;;;5117520;27;20215;-77
2020/12/11 04:45:23;;;;;;;13.63;9.35;;;;;;;;;;5120416;27;20613;-75
2020/12/11 04:47:50;;;;;;;12.82;10.18;;;;;;;;;;5129458;27;20191;-75
2020/12/11 04:50:18;;;;;;;15.20;10.30;;;;;;;;;;5134683;27;20196;-75
2020/12/11 04:52:47;;;;;;;14.02;9.25;;;;;;;;;;5133579;27;20214;-76
2020/12/11 04:55:14;;;;;;;14.32;10.10;;;;;;;;;;5130817;27;20219;-75
2020/12/11 04:57:44;;;;;;;13.40;9.55;;;;;;;;;;5116628;28;20193;-75
2020/12/11 05:00:11;;;;;;;14.05;9.93;;;;;;;;;;5116537;28;20594;-75
2020/12/11 05:02:40;;;;;;;13.32;9.50;;;;;;;;;;5116329;28;20298;-76
2020/12/11 05:05:07;;;;;;;14.27;10.52;;;;;;;;;;5117039;27;20219;-75
2020/12/11 05:07:35;;;;;;;15.80;10.20;;;;;;;;;;5120352;27;20629;-76
2020/12/11 05:10:01;;;;;;;15.15;10.23;;;;;;;;;;5114862;27;20287;-76
2020/12/11 05:12:28;;;;;;;13.60;10.20;;;;;;;;;;5113819;28;20280;-76
2020/12/11 05:14:55;;;;;;;12.95;9.85;;;;;;;;;;5113812;28;20339;-76
2020/12/11 05:17:26;;;;;;;14.35;9.60;;;;;;;;;;5113795;28;20196;-76
2020/12/11 05:19:53;;;;;;;13.55;10.77;;;;;;;;;;5116227;28;20223;-76
2020/12/11 05:22:20;;;;;;;14.50;10.70;;;;;;;;;;5115800;28;20220;-77
2020/12/11 05:24:48;;;;;;;15.40;10.18;;;;;;;;;;5114829;28;20219;-76
2020/12/11 05:27:30;;;;;;;13.75;10.10;;;;;;;;;;5117191;27;20726;-75
2020/12/11 05:29:57;;;;;;;16.27;9.85;;;;;;;;;;5118562;27;20203;-76
2020/12/11 05:32:39;;;;;;;12.95;9.95;;;;;;;;;;5113596;28;20194;-75
2020/12/11 05:35:06;;;;;;;15.05;10.55;;;;;;;;;;5112262;28;20327;-75
2020/12/11 05:37:45;;;;;;;13.43;9.43;;;;;;;;;;5112334;28;20207;-75
2020/12/11 05:40:20;;;;;;;14.82;10.82;;;;;;;;;;5112719;28;20279;-75
2020/12/11 05:43:02;;;;;;;12.38;9.90;;;;;;;;;;5115703;28;20642;-75
2020/12/11 05:45:34;;;;;;;12.48;10.23;;;;;;;;;;5115077;28;20223;-78
2020/12/11 05:48:01;;;;;;;13.65;10.95;;;;;;;;;;5115271;28;20338;-76
2020/12/11 05:50:28;;;;;;;14.68;11.50;;;;;;;;;;5118445;27;20214;-75
2020/12/11 05:52:56;;;;;;;14.98;11.20;;;;;;;;;;5121822;27;20221;-74
2020/12/11 05:55:23;;;;;;;14.10;10.45;;;;;;;;;;5132438;27;20299;-74
2020/12/11 05:57:52;;;;;;;17.25;11.65;;;;;;;;;;5132364;27;20202;-75
2020/12/11 06:00:19;;;;;;;17.38;11.50;;;;;;;;;;5133777;27;20200;-75
2020/12/11 06:02:47;;;;;;;16.80;11.38;;;;;;;;;;5117581;27;20255;-76
2020/12/11 06:05:15;;;;;;;13.70;10.23;;;;;;;;;;5114945;28;20721;-75
2020/12/11 06:07:44;;;;;;;16.05;10.45;;;;;;;;;;5115186;28;20251;-76
2020/12/11 06:10:11;;;;;;;15.02;11.45;;;;;;;;;;5115768;28;20197;-75
2020/12/11 06:12:39;;;;;;;15.05;10.57;;;;;;;;;;5118232;27;20193;-75
2020/12/11 06:15:07;;;;;;;14.90;10.65;;;;;;;;;;5123225;27;20213;-75
2020/12/11 06:17:35;;;;;;;16.75;11.55;;;;;;;;;;5112383;27;20199;-76
2020/12/11 06:20:02;;;;;;;13.32;10.18;;;;;;;;;;5097262;28;20188;-76
2020/12/11 06:22:29;;;;;;;15.02;11.57;;;;;;;;;;5106658;28;20223;-76
2020/12/11 06:24:56;;;;;;;16.38;11.93;;;;;;;;;;5110955;28;20219;-78
2020/12/11 06:27:30;;;;;;;16.02;12.00;;;;;;;;;;5116062;27;20199;-81
2020/12/11 06:29:58;;;;;;;17.33;12.18;;;;;;;;;;5113136;27;20196;-86
2020/12/11 06:32:33;;;;;;;13.50;11.23;;;;;;;;;;5101637;28;20190;-77
2020/12/11 06:35:15;;;;;;;17.15;11.90;;;;;;;;;;5092934;28;20219;-78
2020/12/11 06:37:42;;;;;;;16.65;10.77;;;;;;;;;;5109245;28;20278;-75
2020/12/11 06:40:09;;;;;;;16.92;11.18;;;;;;;;;;5094980;28;20196;-77
2020/12/11 06:42:40;;;;;;;14.85;11.23;;;;;;;;;;5100986;28;20186;-78
2020/12/11 06:45:15;;;;;;;15.68;11.60;;;;;;;;;;5111593;27;20204;-78
2020/12/11 06:47:47;;;;;;;15.20;11.13;;;;;;;;;;5108687;27;20192;-77
2020/12/11 06:50:14;;;;;;;16.17;12.13;;;;;;;;;;5105725;28;20196;-77
2020/12/11 06:52:41;;;;;;;18.08;11.93;;;;;;;;;;5091607;28;20566;-76
2020/12/11 06:55:08;;;;;;;14.48;10.20;;;;;;;;;;5100770;27;20257;-74
2020/12/11 06:57:37;;;;;;;17.35;11.35;;;;;;;;;;5115528;27;20206;-75
2020/12/11 07:00:18;;;;;;;15.73;11.52;;;;;;;;;;5090795;28;20205;-76
2020/12/11 07:02:46;;;;;;;16.05;11.20;;;;;;;;;;5094519;28;20316;-76
2020/12/11 07:05:13;;;;;;;15.77;11.50;;;;;;;;;;5091505;28;20220;-78
2020/12/11 07:07:40;;;;;;;14.77;10.48;;;;;;;;;;5104398;27;20226;-77
2020/12/11 07:10:08;;;;;;;17.65;13.10;;;;;;;;;;5104348;27;20193;-76
2020/12/11 07:12:35;;;;;;;15.77;11.57;;;;;;;;;;5090044;28;20582;-77
2020/12/11 07:15:15;;;;;;;16.90;11.55;;;;;;;;;;5091258;28;20704;-85
2020/12/11 07:17:42;;;;;;;15.45;10.77;;;;;;;;;;5109482;28;20195;-76
2020/12/11 07:20:10;;;;;;;12.30;10.50;;;;;;;;;;5108529;28;20220;-80
2020/12/11 07:22:37;;;;;;;13.93;10.75;;;;;;;;;;5111542;28;20228;-76
2020/12/11 07:25:04;;;;;;;16.25;11.85;;;;;;;;;;5111421;28;20311;-81
2020/12/11 07:27:31;;;;;;;14.02;10.25;;;;;;;;;;5110937;28;20195;-77
2020/12/11 07:29:58;;;;;;;14.63;10.93;;;;;;;;;;5116919;28;20208;-77
2020/12/11 07:32:24;;;;;;;16.30;10.80;;;;;;;;;;5112594;28;20196;-77
2020/12/11 07:34:53;;;;;;;13.27;10.23;;;;;;;;;;5094552;28;20197;-76
2020/12/11 07:37:20;;;;;;;13.73;10.55;;;;;;;;;;5093126;28;20192;-77
2020/12/11 07:39:47;;;;;;;13.30;10.57;;;;;;;;;;5092659;28;20191;-76
2020/12/11 07:42:14;;;;;;;15.90;10.80;;;;;;;;;;5099782;28;20193;-76
2020/12/11 07:44:41;;;;;;;13.38;10.30;;;;;;;;;;5103074;28;20252;-75
2020/12/11 07:47:09;;;;;;;17.25;10.00;;;;;;;;;;5111497;28;20565;-76
2020/12/11 07:49:36;;;;;;;13.52;10.73;;;;;;;;;;5094295;28;20212;-75
2020/12/11 07:52:03;;;;;;;12.45;10.02;;;;;;;;;;5113349;27;20284;-75
2020/12/11 07:54:38;;;;;;;12.98;10.38;;;;;;;;;;5116614;28;20728;-77
2020/12/11 07:57:09;;;;;;;13.20;10.18;;;;;;;;;;5111149;28;20203;-76
2020/12/11 07:59:35;;;;;;;15.48;10.18;;;;;;;;;;5111225;28;20284;-78
2020/12/11 08:02:02;;;;;;;13.52;10.23;;;;;;;;;;5111538;28;20203;-77
2020/12/11 08:04:29;;;;;;;13.32;9.90;;;;;;;;;;5112150;28;20221;-77
2020/12/11 08:06:58;;;;;;;14.18;10.45;;;;;;;;;;5113821;28;20543;-77
2020/12/11 08:09:29;;;;;;;14.93;10.52;;;;;;;;;;5114225;28;20197;-78
2020/12/11 08:11:57;;;;;;;12.05;9.57;;;;;;;;;;5116618;28;20666;-77
2020/12/11 08:14:24;;;;;;;13.35;10.63;;;;;;;;;;5120423;27;20200;-77
2020/12/11 08:16:51;;;;;;;12.93;9.52;;;;;;;;;;5124557;27;20190;-79
2020/12/11 08:19:18;;;;;;;14.65;9.30;;;;;;;;;;5135454;27;20201;-78
2020/12/11 08:21:45;;;;;;;13.88;10.05;;;;;;;;;;5135502;27;20198;-79
2020/12/11 08:24:11;;;;;;;13.60;9.82;;;;;;;;;;5135333;27;20274;-77
2020/12/11 08:26:39;;;;;;;13.73;10.25;;;;;;;;;;5121757;27;20223;-78
2020/12/11 08:29:08;;;;;;;12.82;9.73;;;;;;;;;;5117132;28;20235;-76
2020/12/11 08:31:38;;;;;;;12.98;9.63;;;;;;;;;;5116910;28;20283;-77
2020/12/11 08:34:07;;;;;;;15.57;10.60;;;;;;;;;;5117158;28;20729;-77
2020/12/11 08:36:34;;;;;;;11.02;9.10;;;;;;;;;;5119889;27;20217;-76
2020/12/11 08:39:05;;;;;;;14.13;9.98;;;;;;;;;;5117197;27;20651;-77
2020/12/11 08:41:34;;;;;;;14.30;9.38;;;;;;;;;;5114502;28;20279;-76
2020/12/11 08:44:03;;;;;;;10.77;9.32;;;;;;;;;;5114347;28;20233;-77
2020/12/11 08:46:36;;;;;;;12.95;9.70;;;;;;;;;;5113631;28;20205;-76
2020/12/11 08:51:59;;;;;;;11.85;9.98;;;;;;;;;;5115300;28;20556;-77
2020/12/11 08:54:27;;;;;;;13.77;10.00;;;;;;;;;;5116660;28;20197;-77
2020/12/11 08:56:54;;;;;;;11.85;9.00;;;;;;;;;;5116930;27;20246;-78
2020/12/11 08:59:21;;;;;;;13.00;9.73;;;;;;;;;;5119946;27;20684;-70
2020/12/11 09:01:48;;;;;;;15.85;9.75;;;;;;;;;;5128336;27;20192;-78
2020/12/11 09:04:15;;;;;;;11.07;9.25;;;;;;;;;;5134193;27;20322;-76
2020/12/11 09:06:44;;;;;;;11.05;8.60;;;;;;;;;;5134439;27;20188;-77
2020/12/11 09:09:11;;;;;;;11.23;8.13;;;;;;;;;;5132784;27;20602;-78
2020/12/11 09:11:38;;;;;;;12.07;9.35;;;;;;;;;;5120023;27;20191;-78
2020/12/11 09:14:05;;;;;;;10.32;8.30;;;;;;;;;;5116835;27;20181;-76
2020/12/11 09:16:32;;;;;;;12.02;8.70;;;;;;;;;;5113948;28;20600;-77
2020/12/11 09:18:59;;;;;;;11.13;9.15;;;;;;;;;;5113971;27;20193;-77
2020/12/11 09:21:27;;;;;;;12.70;9.20;;;;;;;;;;5114037;28;20275;-77
2020/12/11 09:23:54;;;;;;;9.68;8.20;;;;;;;;;;5114979;27;20237;-77
2020/12/11 09:26:22;;;;;;;10.57;8.75;;;;;;;;;;5116044;28;20219;-78
2020/12/11 09:28:55;;;;;;;11.05;9.30;;;;;;;;;;5115953;28;20197;-78
2020/12/11 09:31:22;;;;;;;10.93;8.40;;;;;;;;;;5115817;28;20193;-77
2020/12/11 09:33:49;;;;;;;12.25;9.00;;;;;;;;;;5119139;27;20216;-78
2020/12/11 09:36:17;;;;;;;10.48;8.50;;;;;;;;;;5116750;27;20209;-78
2020/12/11 09:38:44;;;;;;;11.23;8.55;;;;;;;;;;5113677;28;20643;-77
2020/12/11 09:41:13;;;;;;;10.75;7.55;;;;;;;;;;5113570;28;20344;-78
2020/12/11 09:44:01;;;;;;;9.43;8.32;;;;;;;;;;5113601;28;20317;-77
2020/12/11 09:46:35;;;;;;;11.20;8.07;;;;;;;;;;5095037;28;20255;-78
2020/12/11 09:49:06;;;;;;;11.30;8.98;;;;;;;;;;5095237;28;20200;-77
2020/12/11 09:51:52;;;;;;;12.73;8.85;;;;;;;;;;5095180;28;20190;-77
2020/12/11 09:54:22;;;;;;;8.98;7.18;;;;;;;;;;5097903;27;20197;-77
2020/12/11 09:56:49;;;;;;;11.02;8.43;;;;;;;;;;5119254;27;20216;-77
2020/12/11 09:59:18;;;;;;;11.55;8.30;;;;;;;;;;5128749;27;20650;-77
2020/12/11 10:01:57;;;;;;;9.48;7.88;;;;;;;;;;5133627;27;20200;-77
2020/12/11 10:04:24;;;;;;;12.80;8.75;;;;;;;;;;5133349;27;20242;-77
2020/12/11 10:06:52;;;;;;;9.35;7.20;;;;;;;;;;5128997;27;20283;-78
2020/12/11 10:09:19;;;;;;;11.43;8.27;;;;;;;;;;5113713;28;20204;-79
2020/12/11 10:11:46;;;;;;;10.20;7.85;;;;;;;;;;5115747;27;20199;-77
2020/12/11 10:14:20;;;;;;;9.55;7.72;;;;;;;;;;5118846;27;20253;-77
2020/12/11 10:16:50;;;;;;;9.60;7.18;;;;;;;;;;5112166;28;20200;-77
2020/12/11 10:19:17;;;;;;;9.85;7.53;;;;;;;;;;5111454;28;20215;-76
2020/12/11 10:21:46;;;;;;;11.27;7.60;;;;;;;;;;5112895;28;20273;-77
2020/12/11 10:24:14;;;;;;;10.65;7.53;;;;;;;;;;5112780;28;20225;-77
2020/12/11 10:26:41;;;;;;;10.38;7.47;;;;;;;;;;5110475;27;20189;-77
2020/12/11 10:29:08;;;;;;;10.38;7.65;;;;;;;;;;5114743;27;20241;-77
2020/12/11 10:31:35;;;;;;;11.57;7.82;;;;;;;;;;5109538;27;20282;-77
2020/12/11 10:34:02;;;;;;;11.05;7.60;;;;;;;;;;5108881;28;20668;-77
2020/12/11 10:36:29;;;;;;;10.50;8.05;;;;;;;;;;5108426;28;20216;-76
2020/12/11 10:38:56;;;;;;;10.85;7.75;;;;;;;;;;5109229;28;20600;-77
2020/12/11 10:41:24;;;;;;;7.75;6.95;;;;;;;;;;5110904;28;20285;-78
2020/12/11 10:43:51;;;;;;;8.07;6.80;;;;;;;;;;5111024;28;20244;-78
2020/12/11 10:46:18;;;;;;;8.25;6.78;;;;;;;;;;5110546;28;20252;-76
2020/12/11 10:48:45;;;;;;;7.80;6.70;;;;;;;;;;5111143;27;20189;-75
2020/12/11 10:51:13;;;;;;;9.32;7.00;;;;;;;;;;5114833;27;20190;-76
2020/12/11 10:53:41;;;;;;;9.57;7.07;;;;;;;;;;5123390;27;20553;-74
2020/12/11 10:56:08;;;;;;;8.15;6.72;;;;;;;;;;5128238;27;20219;-75
2020/12/11 10:58:36;;;;;;;8.23;7.30;;;;;;;;;;5129419;27;20616;-75
2020/12/11 11:01:04;;;;;;;8.35;6.88;;;;;;;;;;5123845;27;20249;-75
2020/12/11 11:03:31;;;;;;;10.77;7.35;;;;;;;;;;5110208;28;20655;-76
2020/12/11 11:06:02;;;;;;;9.65;7.03;;;;;;;;;;5110884;28;20221;-76
2020/12/11 11:08:38;;;;;;;8.80;6.53;;;;;;;;;;5110461;28;20620;-75
2020/12/11 11:11:05;;;;;;;8.57;6.60;;;;;;;;;;5111249;27;20240;-75
2020/12/11 11:13:39;;;;;;;8.10;6.32;;;;;;;;;;5113837;27;20268;-75
2020/12/11 11:16:06;;;;;;;7.47;5.82;;;;;;;;;;5124757;27;20641;-76
2020/12/11 11:18:38;;;;;;;8.27;6.40;;;;;;;;;;5129091;27;20300;-76
2020/12/11 11:23:55;;;;;;;7.20;5.70;;;;;;;;;;5120758;28;20506;-76
2020/12/11 11:26:31;;;;;;;8.25;6.32;;;;;;;;;;5110439;28;20217;-75
2020/12/11 11:28:58;;;;;;;6.45;5.75;;;;;;;;;;5111882;28;20192;-76
2020/12/11 11:31:26;;;;;;;7.50;6.65;;;;;;;;;;5113892;28;20201;-76
2020/12/11 11:33:53;;;;;;;7.30;6.00;;;;;;;;;;5115293;28;20194;-77
2020/12/11 11:36:20;;;;;;;12.70;6.05;;;;;;;;;;5117645;28;20307;-77
2020/12/11 11:38:46;;;;;;;9.15;6.50;;;;;;;;;;5130375;28;20631;-76
2020/12/11 11:41:13;;;;;;;8.20;5.93;;;;;;;;;;5132427;27;20551;-76
2020/12/11 11:43:55;;;;;;;8.10;6.43;;;;;;;;;;5132187;27;20223;-75
2020/12/11 11:46:22;;;;;;;7.18;6.03;;;;;;;;;;5127230;27;20214;-75
2020/12/11 11:48:50;;;;;;;8.75;6.47;;;;;;;;;;5117919;28;20217;-76
2020/12/11 11:51:20;;;;;;;8.32;6.05;;;;;;;;;;5117642;28;20200;-77
2020/12/11 11:53:47;;;;;;;6.55;5.72;;;;;;;;;;5118172;28;20528;-77
2020/12/11 11:56:20;;;;;;;10.00;7.32;;;;;;;;;;5119352;27;20809;-76
2020/12/11 11:58:48;;;;;;;7.35;6.35;;;;;;;;;;5121704;27;20629;-75
2020/12/11 12:01:15;;;;;;;7.60;6.35;;;;;;;;;;5094700;28;20210;-76
2020/12/11 12:03:42;;;;;;;8.00;6.10;;;;;;;;;;5095306;28;20239;-76
2020/12/11 12:06:09;;;;;;;8.23;6.22;;;;;;;;;;5095129;28;20578;-76
2020/12/11 12:08:37;;;;;;;11.05;7.18;;;;;;;;;;5104382;28;20207;-76
2020/12/11 12:11:03;;;;;;;7.25;6.00;;;;;;;;;;5117584;28;20224;-74
2020/12/11 12:13:30;;;;;;;7.03;5.78;;;;;;;;;;5117417;28;20284;-76
2020/12/11 12:15:57;;;;;;;7.10;5.30;;;;;;;;;;5117352;28;20219;-74
2020/12/11 12:18:24;;;;;;;7.50;5.85;;;;;;;;;;5118449;27;20544;-76
2020/12/11 12:20:52;;;;;;;7.78;6.03;;;;;;;;;;5121240;27;20287;-74
2020/12/11 12:28:52;;;;;;;7.43;6.03;;;;;;;;;;5114881;28;20527;-74
2020/12/11 12:31:24;;;;;;;7.10;6.20;;;;;;;;;;5115746;27;20200;-76
2020/12/11 12:39:33;;;;;;;7.80;6.13;;;;;;;;;;5116637;28;20200;-75
2020/12/11 12:44:41;;;;;;;5.93;5.30;;;;;;;;;;5116435;27;20216;-76
2020/12/11 12:47:08;;;;;;;6.28;4.90;;;;;;;;;;5114517;28;20203;-76
2020/12/11 12:49:34;;;;;;;6.05;5.43;;;;;;;;;;5114269;28;20464;-78
2020/12/11 12:52:01;;;;;;;5.00;4.32;;;;;;;;;;5114941;28;20285;-76
2020/12/11 12:54:29;;;;;;;6.07;5.22;;;;;;;;;;5115708;28;20713;-74
2020/12/11 12:56:58;;;;;;;5.43;4.75;;;;;;;;;;5116277;28;20283;-76
2020/12/11 12:59:33;;;;;;;6.15;4.80;;;;;;;;;;5116631;28;20248;-76
2020/12/11 13:02:16;;;;;;;6.80;5.32;;;;;;;;;;5116285;28;20287;-73
2020/12/11 13:04:52;;;;;;;6.20;5.00;;;;;;;;;;5120442;27;20559;-76
2020/12/11 13:07:19;;;;;;;7.25;5.55;;;;;;;;;;5115497;27;20188;-76
2020/12/11 13:09:47;;;;;;;7.93;6.45;;;;;;;;;;5113990;28;20280;-76
2020/12/11 13:12:14;;;;;;;7.25;5.18;;;;;;;;;;5114054;28;20199;-75
2020/12/11 13:14:40;;;;;;;6.97;6.05;;;;;;;;;;5113667;27;20293;-76
2020/12/11 13:17:07;;;;;;;9.38;6.65;;;;;;;;;;5116363;28;20642;-75
2020/12/11 13:19:35;;;;;;;7.45;5.85;;;;;;;;;;5116059;28;20284;-75
2020/12/11 13:22:18;;;;;;;6.70;5.38;;;;;;;;;;5115853;28;20241;-75
2020/12/11 13:27:29;;;;;;;5.50;4.80;;;;;;;;;;5117901;27;20249;-78
2020/12/11 13:29:56;;;;;;;6.60;4.90;;;;;;;;;;5114636;27;20196;-77
2020/12/11 13:32:23;;;;;;;6.10;4.80;;;;;;;;;;5113614;28;20749;-77
2020/12/11 13:34:49;;;;;;;6.57;5.07;;;;;;;;;;5113498;28;20311;-77
2020/12/11 13:37:17;;;;;;;6.05;5.20;;;;;;;;;;5112466;28;20188;-78
2020/12/11 13:39:44;;;;;;;5.57;4.82;;;;;;;;;;5115635;28;20250;-75
2020/12/11 13:42:12;;;;;;;6.57;5.32;;;;;;;;;;5115890;28;20283;-77
2020/12/11 13:44:38;;;;;;;6.82;5.55;;;;;;;;;;5115509;28;20228;-77
2020/12/11 13:47:06;;;;;;;5.35;4.85;;;;;;;;;;5116173;27;20199;-77
2020/12/11 13:49:34;;;;;;;6.00;4.70;;;;;;;;;;5119473;27;20196;-77
2020/12/11 13:52:00;;;;;;;6.05;5.45;;;;;;;;;;5128187;27;20615;-77
2020/12/11 13:54:27;;;;;;;7.15;5.13;;;;;;;;;;5133450;27;20721;-77
2020/12/11 13:56:54;;;;;;;6.40;5.38;;;;;;;;;;5133966;27;20195;-77
2020/12/11 13:59:22;;;;;;;7.15;5.45;;;;;;;;;;5130691;27;20697;-77
2020/12/11 14:01:49;;;;;;;7.28;5.90;;;;;;;;;;5114220;28;20193;-77
2020/12/11 14:04:17;;;;;;;6.47;5.13;;;;;;;;;;5113982;28;20628;-77
2020/12/11 14:06:44;;;;;;;6.35;5.70;;;;;;;;;;5114511;28;20197;-77
2020/12/11 14:09:11;;;;;;;7.38;5.45;;;;;;;;;;5114357;27;20611;-77
2020/12/11 14:11:38;;;;;;;8.48;6.32;;;;;;;;;;5119599;27;20627;-75
2020/12/11 14:14:05;;;;;;;8.15;6.47;;;;;;;;;;5127280;27;20308;-76
2020/12/11 14:16:39;;;;;;;7.47;5.70;;;;;;;;;;5133275;27;20303;-77
2020/12/11 14:19:22;;;;;;;7.55;6.28;;;;;;;;;;5133325;27;20195;-77
2020/12/11 14:21:56;;;;;;;7.65;5.60;;;;;;;;;;5128512;27;20197;-77
2020/12/11 14:24:22;;;;;;;8.80;6.65;;;;;;;;;;5117984;27;20221;-77
2020/12/11 14:26:50;;;;;;;9.45;7.13;;;;;;;;;;5115941;27;21977;-78
2020/12/11 14:29:17;;;;;;;9.65;7.20;;;;;;;;;;5112733;28;20189;-77
2020/12/11 14:31:45;;;;;;;8.88;7.05;;;;;;;;;;5112586;28;20199;-78
2020/12/11 14:34:12;;;;;;;10.43;6.70;;;;;;;;;;5113146;28;20193;-76
2020/12/11 14:36:39;;;;;;;9.98;7.10;;;;;;;;;;5113552;28;20207;-76
2020/12/11 14:39:09;;;;;;;8.75;7.20;;;;;;;;;;5114525;28;20199;-77
2020/12/11 14:41:36;;;;;;;9.73;7.65;;;;;;;;;;5114569;28;20189;-75
2020/12/11 14:44:03;;;;;;;12.55;8.90;;;;;;;;;;5114365;28;20650;-77
2020/12/11 14:46:30;;;;;;;13.50;9.70;;;;;;;;;;5117271;27;20216;-77
2020/12/11 14:48:58;;;;;;;12.70;9.30;;;;;;;;;;5122559;27;20195;-76
2020/12/11 14:51:33;;;;;;;13.10;9.82;;;;;;;;;;5132815;27;20380;-76
2020/12/11 14:54:00;;;;;;;15.48;10.07;;;;;;;;;;5132718;27;20287;-76
2020/12/11 14:56:27;;;;;;;14.75;11.05;;;;;;;;;;5132817;27;20307;-76
2020/12/11 14:58:54;;;;;;;15.07;10.15;;;;;;;;;;5116860;27;20192;-79